Time;durP1;ratioP1;P1;durP2;ratioP2;P2;SDS_P1;SDS_P2;PMS_P1;PMS_P2;Temp;Humidity;BMP_temperature;BMP_pressure;BME280_temperature;BME280_humidity;BME280_pressure;Samples;Min_cycle;Max_cycle;Signal;HPM_P1;HPM_P2
2023/09/11 00:01:32;;;;;;;5.95;2.58;;;;;;;;;;4940151;28;20439;-72
2023/09/11 00:03:59;;;;;;;6.90;2.70;;;;;;;;;;4942700;28;20050;-70
2023/09/11 00:06:26;;;;;;;7.05;2.40;;;;;;;;;;4939243;28;20119;-71
2023/09/11 00:08:52;;;;;;;7.28;2.78;;;;;;;;;;4946528;28;20051;-71
2023/09/11 00:11:18;;;;;;;6.78;2.70;;;;;;;;;;4943297;28;20042;-69
2023/09/11 00:13:45;;;;;;;5.65;2.30;;;;;;;;;;4939651;28;20520;-72
2023/09/11 00:16:11;;;;;;;6.55;2.75;;;;;;;;;;4944119;28;20043;-72
2023/09/11 00:18:37;;;;;;;6.22;2.55;;;;;;;;;;4941671;28;20400;-70
2023/09/11 00:21:04;;;;;;;7.82;2.70;;;;;;;;;;4945225;28;20035;-70
2023/09/11 00:23:30;;;;;;;5.38;2.38;;;;;;;;;;4936632;28;20066;-71
2023/09/11 00:25:56;;;;;;;6.35;2.80;;;;;;;;;;4942513;28;20034;-71
2023/09/11 00:28:22;;;;;;;6.82;2.80;;;;;;;;;;4940534;28;20042;-71
2023/09/11 00:30:48;;;;;;;5.68;2.40;;;;;;;;;;4944731;28;20553;-71
2023/09/11 00:33:16;;;;;;;7.90;2.63;;;;;;;;;;4940578;28;20038;-71
2023/09/11 00:35:45;;;;;;;6.93;2.60;;;;;;;;;;4944447;28;20035;-71
2023/09/11 00:38:12;;;;;;;5.93;2.67;;;;;;;;;;4946040;28;20030;-71
2023/09/11 00:40:38;;;;;;;6.78;2.65;;;;;;;;;;4943133;28;20058;-71
2023/09/11 00:43:04;;;;;;;6.00;2.80;;;;;;;;;;4946730;28;20082;-71
2023/09/11 00:45:30;;;;;;;5.00;2.15;;;;;;;;;;4944488;28;20105;-71
2023/09/11 00:47:59;;;;;;;5.68;2.63;;;;;;;;;;4946832;28;20715;-71
2023/09/11 00:50:25;;;;;;;5.80;2.78;;;;;;;;;;4942710;28;20027;-71
2023/09/11 00:52:51;;;;;;;7.03;2.72;;;;;;;;;;4947139;28;20062;-71
2023/09/11 00:55:18;;;;;;;6.78;2.72;;;;;;;;;;4945285;28;20035;-71
2023/09/11 00:57:44;;;;;;;6.20;2.70;;;;;;;;;;4941596;28;20027;-71
2023/09/11 01:00:11;;;;;;;5.60;2.30;;;;;;;;;;4943267;28;20030;-72
2023/09/11 01:02:37;;;;;;;6.03;2.65;;;;;;;;;;4942856;28;20031;-72
2023/09/11 01:05:07;;;;;;;6.25;2.20;;;;;;;;;;4943900;28;20030;-70
2023/09/11 01:07:33;;;;;;;5.28;2.30;;;;;;;;;;4945112;28;20457;-70
2023/09/11 01:09:59;;;;;;;7.93;2.50;;;;;;;;;;4950323;28;20125;-71
2023/09/11 01:12:26;;;;;;;5.53;2.38;;;;;;;;;;4945277;28;20069;-70
2023/09/11 01:14:52;;;;;;;6.78;2.50;;;;;;;;;;4946506;28;20519;-71
2023/09/11 01:17:47;;;;;;;5.97;2.33;;;;;;;;;;4940603;28;20618;-70
2023/09/11 01:20:26;;;;;;;7.30;2.53;;;;;;;;;;4936971;28;20039;-70
2023/09/11 01:23:12;;;;;;;5.60;2.10;;;;;;;;;;4944392;28;20038;-71
2023/09/11 01:25:50;;;;;;;4.80;2.20;;;;;;;;;;4942451;28;20023;-71
2023/09/11 01:28:28;;;;;;;5.45;2.17;;;;;;;;;;4944134;28;20548;-70
2023/09/11 01:30:55;;;;;;;6.82;2.20;;;;;;;;;;4945815;28;20110;-70
2023/09/11 01:33:21;;;;;;;5.97;2.40;;;;;;;;;;4944220;28;20031;-71
2023/09/11 01:35:47;;;;;;;6.43;2.45;;;;;;;;;;4945498;28;20078;-71
2023/09/11 01:38:13;;;;;;;6.32;2.33;;;;;;;;;;4946047;28;20509;-71
2023/09/11 01:40:41;;;;;;;5.55;2.22;;;;;;;;;;4949786;28;20035;-71
2023/09/11 01:43:09;;;;;;;4.90;2.10;;;;;;;;;;4950723;28;20083;-72
2023/09/11 01:45:37;;;;;;;6.80;2.30;;;;;;;;;;4949145;28;20371;-71
2023/09/11 01:48:04;;;;;;;5.88;2.35;;;;;;;;;;4946527;28;20038;-70
2023/09/11 01:50:31;;;;;;;6.43;2.47;;;;;;;;;;4947557;28;20038;-70
2023/09/11 01:52:57;;;;;;;6.03;2.40;;;;;;;;;;4948568;28;20062;-70
2023/09/11 01:55:23;;;;;;;5.82;2.40;;;;;;;;;;4946229;28;20097;-70
2023/09/11 01:57:50;;;;;;;5.82;2.28;;;;;;;;;;4949421;28;20022;-70
2023/09/11 02:00:16;;;;;;;5.15;2.00;;;;;;;;;;4943509;28;20104;-70
2023/09/11 02:02:42;;;;;;;7.60;2.10;;;;;;;;;;4945472;28;20049;-71
2023/09/11 02:05:08;;;;;;;4.78;2.00;;;;;;;;;;4946489;28;20422;-70
2023/09/11 02:07:34;;;;;;;5.72;2.05;;;;;;;;;;4943888;28;20098;-70
2023/09/11 02:10:00;;;;;;;4.57;1.90;;;;;;;;;;4947519;28;20035;-71
2023/09/11 02:12:26;;;;;;;4.47;1.80;;;;;;;;;;4944177;28;20035;-70
2023/09/11 02:14:53;;;;;;;5.45;2.22;;;;;;;;;;4945274;28;20043;-71
2023/09/11 02:17:19;;;;;;;5.43;2.10;;;;;;;;;;4940094;28;20039;-71
2023/09/11 02:19:45;;;;;;;5.55;2.30;;;;;;;;;;4944822;28;20073;-71
2023/09/11 02:22:11;;;;;;;5.50;2.20;;;;;;;;;;4949110;28;20478;-71
2023/09/11 02:24:37;;;;;;;5.65;2.40;;;;;;;;;;4944349;28;20126;-71
2023/09/11 02:27:04;;;;;;;6.38;2.30;;;;;;;;;;4943845;28;20137;-71
2023/09/11 02:29:30;;;;;;;5.95;2.25;;;;;;;;;;4943296;28;20112;-71
2023/09/11 02:31:56;;;;;;;5.72;2.50;;;;;;;;;;4944124;28;20030;-71
2023/09/11 02:34:22;;;;;;;7.03;2.28;;;;;;;;;;4939286;28;20178;-70
2023/09/11 02:36:48;;;;;;;4.90;2.20;;;;;;;;;;4942973;28;20309;-71
2023/09/11 02:39:14;;;;;;;6.15;2.40;;;;;;;;;;4941881;28;20062;-70
2023/09/11 02:41:41;;;;;;;6.25;2.17;;;;;;;;;;4944180;28;20057;-70
2023/09/11 02:44:07;;;;;;;5.90;2.03;;;;;;;;;;4946907;28;20059;-70
2023/09/11 02:46:33;;;;;;;5.53;2.20;;;;;;;;;;4944339;28;20933;-71
2023/09/11 02:48:59;;;;;;;6.15;2.50;;;;;;;;;;4947082;28;20549;-71
2023/09/11 02:51:27;;;;;;;7.10;2.17;;;;;;;;;;4945121;28;20615;-70
2023/09/11 02:53:53;;;;;;;5.57;2.20;;;;;;;;;;4947054;28;20046;-71
2023/09/11 02:56:19;;;;;;;6.28;2.28;;;;;;;;;;4941390;28;20137;-70
2023/09/11 02:58:45;;;;;;;6.85;2.65;;;;;;;;;;4941950;28;20030;-70
2023/09/11 03:01:12;;;;;;;5.43;2.30;;;;;;;;;;4942255;28;20034;-71
2023/09/11 03:03:38;;;;;;;5.90;2.25;;;;;;;;;;4942672;28;20027;-72
2023/09/11 03:06:05;;;;;;;5.15;2.03;;;;;;;;;;4943078;28;20038;-71
2023/09/11 03:08:31;;;;;;;5.10;2.00;;;;;;;;;;4937224;28;20035;-71
2023/09/11 03:11:07;;;;;;;6.80;2.03;;;;;;;;;;4940052;28;20379;-70
2023/09/11 03:13:33;;;;;;;5.97;2.10;;;;;;;;;;4943369;28;20440;-70
2023/09/11 03:16:08;;;;;;;6.90;2.35;;;;;;;;;;4944585;28;20477;-71
2023/09/11 03:18:35;;;;;;;4.50;2.00;;;;;;;;;;4938166;28;20034;-71
2023/09/11 03:21:02;;;;;;;5.50;2.00;;;;;;;;;;4945824;28;20058;-70
2023/09/11 03:23:29;;;;;;;5.43;2.20;;;;;;;;;;4941327;28;20440;-71
2023/09/11 03:25:55;;;;;;;4.60;1.98;;;;;;;;;;4946897;28;20055;-70
2023/09/11 03:28:21;;;;;;;5.28;2.20;;;;;;;;;;4939689;28;20937;-71
2023/09/11 03:30:47;;;;;;;4.93;1.90;;;;;;;;;;4945682;28;20133;-71
2023/09/11 03:33:13;;;;;;;4.18;1.75;;;;;;;;;;4941628;28;20488;-71
2023/09/11 03:35:39;;;;;;;5.80;2.15;;;;;;;;;;4940142;28;20027;-71
2023/09/11 03:38:06;;;;;;;5.40;2.08;;;;;;;;;;4943234;28;20034;-70
2023/09/11 03:40:32;;;;;;;6.22;2.35;;;;;;;;;;4937988;28;20098;-71
2023/09/11 03:42:58;;;;;;;5.72;2.00;;;;;;;;;;4939851;28;20055;-71
2023/09/11 03:45:24;;;;;;;8.38;2.72;;;;;;;;;;4940877;28;20019;-71
2023/09/11 03:47:50;;;;;;;5.93;2.33;;;;;;;;;;4942191;28;20404;-71
2023/09/11 03:50:16;;;;;;;5.72;2.28;;;;;;;;;;4942666;28;20038;-71
2023/09/11 03:52:43;;;;;;;7.90;2.70;;;;;;;;;;4938023;28;20050;-71
2023/09/11 03:55:09;;;;;;;6.75;2.60;;;;;;;;;;4939455;28;20069;-70
2023/09/11 03:57:35;;;;;;;5.60;2.22;;;;;;;;;;4941834;28;20037;-71
2023/09/11 04:00:01;;;;;;;6.40;2.25;;;;;;;;;;4945578;28;21176;-72
2023/09/11 04:02:27;;;;;;;5.93;2.30;;;;;;;;;;4943917;28;20567;-71
2023/09/11 04:04:53;;;;;;;6.72;2.88;;;;;;;;;;4941522;28;20482;-71
2023/09/11 04:07:19;;;;;;;8.07;2.72;;;;;;;;;;4943746;28;20870;-72
2023/09/11 04:09:46;;;;;;;7.15;2.80;;;;;;;;;;4945271;28;20030;-71
2023/09/11 04:12:16;;;;;;;6.30;2.80;;;;;;;;;;4942789;28;20417;-72
2023/09/11 04:14:42;;;;;;;7.95;2.70;;;;;;;;;;4942904;28;20707;-71
2023/09/11 04:17:10;;;;;;;9.20;2.85;;;;;;;;;;4941680;28;20106;-71
2023/09/11 04:19:36;;;;;;;11.70;3.10;;;;;;;;;;4941271;28;20073;-71
2023/09/11 04:22:04;;;;;;;5.53;2.28;;;;;;;;;;4944779;28;20030;-71
2023/09/11 04:24:30;;;;;;;6.95;2.70;;;;;;;;;;4938891;28;20031;-71
2023/09/11 04:26:57;;;;;;;6.43;2.50;;;;;;;;;;4941223;28;20030;-71
2023/09/11 04:29:23;;;;;;;7.95;2.90;;;;;;;;;;4940710;28;20026;-71
2023/09/11 04:31:49;;;;;;;6.88;2.60;;;;;;;;;;4947713;28;20061;-71
2023/09/11 04:34:17;;;;;;;8.43;3.30;;;;;;;;;;4937566;28;20038;-71
2023/09/11 04:36:43;;;;;;;7.13;3.00;;;;;;;;;;4944780;28;20038;-71
2023/09/11 04:39:11;;;;;;;7.07;2.83;;;;;;;;;;4941770;28;20031;-71
2023/09/11 04:41:38;;;;;;;6.55;2.70;;;;;;;;;;4942539;28;20050;-71
2023/09/11 04:44:04;;;;;;;6.85;2.25;;;;;;;;;;4943191;28;20515;-71
2023/09/11 04:46:31;;;;;;;7.30;3.00;;;;;;;;;;4942469;28;20051;-71
2023/09/11 04:48:57;;;;;;;9.05;2.92;;;;;;;;;;4947268;28;20023;-71
2023/09/11 04:51:24;;;;;;;9.70;3.40;;;;;;;;;;4939028;28;20558;-71
2023/09/11 04:53:50;;;;;;;8.95;2.75;;;;;;;;;;4941219;28;20495;-71
2023/09/11 04:56:16;;;;;;;7.60;2.75;;;;;;;;;;4939737;28;20050;-71
2023/09/11 04:58:42;;;;;;;7.35;2.80;;;;;;;;;;4942299;28;20136;-71
2023/09/11 05:01:08;;;;;;;9.13;3.08;;;;;;;;;;4943373;28;20393;-70
2023/09/11 05:03:35;;;;;;;8.20;3.05;;;;;;;;;;4940077;28;20488;-71
2023/09/11 05:06:01;;;;;;;6.78;2.88;;;;;;;;;;4947013;28;20043;-71
2023/09/11 05:08:27;;;;;;;7.03;2.88;;;;;;;;;;4941799;28;20085;-71
2023/09/11 05:10:53;;;;;;;11.63;3.20;;;;;;;;;;4942776;28;20067;-71
2023/09/11 05:13:19;;;;;;;9.07;3.20;;;;;;;;;;4942039;28;20043;-71
2023/09/11 05:15:48;;;;;;;6.85;2.88;;;;;;;;;;4948077;28;20043;-71
2023/09/11 05:18:14;;;;;;;6.40;2.50;;;;;;;;;;4941463;28;20030;-71
2023/09/11 05:20:40;;;;;;;7.03;2.88;;;;;;;;;;4946723;28;20033;-71
2023/09/11 05:23:07;;;;;;;7.40;2.58;;;;;;;;;;4944411;28;20587;-71
2023/09/11 05:25:36;;;;;;;7.03;2.70;;;;;;;;;;4948347;28;23883;-71
2023/09/11 05:28:02;;;;;;;7.95;2.83;;;;;;;;;;4949137;28;20566;-71
2023/09/11 05:30:28;;;;;;;8.38;3.20;;;;;;;;;;4946841;28;20070;-71
2023/09/11 05:32:54;;;;;;;8.00;2.72;;;;;;;;;;4946448;28;20526;-70
2023/09/11 05:35:21;;;;;;;6.55;2.90;;;;;;;;;;4945819;28;20097;-70
2023/09/11 05:37:47;;;;;;;7.20;2.88;;;;;;;;;;4945231;28;20023;-70
2023/09/11 05:40:13;;;;;;;7.63;3.05;;;;;;;;;;4944298;28;20042;-70
2023/09/11 05:42:40;;;;;;;6.72;2.83;;;;;;;;;;4944671;28;20055;-70
2023/09/11 05:45:06;;;;;;;7.88;2.70;;;;;;;;;;4946382;28;20460;-70
2023/09/11 05:47:33;;;;;;;6.07;2.40;;;;;;;;;;4946416;28;20199;-70
2023/09/11 05:50:00;;;;;;;7.53;2.28;;;;;;;;;;4951979;28;20031;-70
2023/09/11 05:52:27;;;;;;;6.03;2.42;;;;;;;;;;4947613;28;20031;-70
2023/09/11 05:54:53;;;;;;;5.90;2.40;;;;;;;;;;4942727;28;20468;-70
2023/09/11 05:57:19;;;;;;;7.13;2.30;;;;;;;;;;4942976;28;20521;-70
2023/09/11 05:59:46;;;;;;;7.90;2.88;;;;;;;;;;4946129;28;20038;-70
2023/09/11 06:02:12;;;;;;;12.20;4.57;;;;;;;;;;4943918;28;20034;-70
2023/09/11 06:04:38;;;;;;;13.68;4.07;;;;;;;;;;4946289;28;20145;-70
2023/09/11 06:07:04;;;;;;;11.02;4.90;;;;;;;;;;4944259;28;20077;-70
2023/09/11 06:09:31;;;;;;;15.18;6.20;;;;;;;;;;4939971;28;20031;-70
2023/09/11 06:11:57;;;;;;;10.50;4.40;;;;;;;;;;4942948;28;20031;-70
2023/09/11 06:14:23;;;;;;;10.55;3.50;;;;;;;;;;4940344;28;20253;-70
2023/09/11 06:16:50;;;;;;;11.10;3.92;;;;;;;;;;4942065;28;20054;-71
2023/09/11 06:19:16;;;;;;;8.80;4.10;;;;;;;;;;4941851;28;20035;-69
2023/09/11 06:21:46;;;;;;;11.52;5.03;;;;;;;;;;4945294;28;20240;-70
2023/09/11 06:24:13;;;;;;;10.18;4.63;;;;;;;;;;4946699;28;20494;-70
2023/09/11 06:26:43;;;;;;;9.98;3.90;;;;;;;;;;4944152;28;20128;-69
2023/09/11 06:29:09;;;;;;;11.32;3.60;;;;;;;;;;4941278;28;20302;-69
2023/09/11 06:31:35;;;;;;;12.07;3.60;;;;;;;;;;4941423;28;20544;-70
2023/09/11 06:34:02;;;;;;;7.88;2.83;;;;;;;;;;4943749;28;20039;-69
2023/09/11 06:36:28;;;;;;;8.43;3.42;;;;;;;;;;4945000;28;20027;-69
2023/09/11 06:38:54;;;;;;;6.72;2.95;;;;;;;;;;4943681;28;20870;-72
2023/09/11 06:41:20;;;;;;;8.80;3.33;;;;;;;;;;4939046;28;20043;-69
2023/09/11 06:43:46;;;;;;;7.40;3.22;;;;;;;;;;4939499;28;20040;-72
2023/09/11 06:46:13;;;;;;;9.57;3.15;;;;;;;;;;4940204;28;20177;-69
2023/09/11 06:48:39;;;;;;;8.20;2.97;;;;;;;;;;4943835;28;20030;-70
2023/09/11 06:51:05;;;;;;;6.90;3.13;;;;;;;;;;4944299;28;20062;-70
2023/09/11 06:53:31;;;;;;;7.88;3.05;;;;;;;;;;4943356;28;20030;-70
2023/09/11 06:55:57;;;;;;;7.20;3.03;;;;;;;;;;4940896;28;20493;-69
2023/09/11 06:58:24;;;;;;;12.38;3.90;;;;;;;;;;4940104;28;20375;-71
2023/09/11 07:00:50;;;;;;;15.05;4.13;;;;;;;;;;4945017;28;20046;-70
2023/09/11 07:03:19;;;;;;;8.48;3.58;;;;;;;;;;4939786;28;20652;-70
2023/09/11 07:05:45;;;;;;;9.65;3.10;;;;;;;;;;4945972;28;20054;-69
2023/09/11 07:08:11;;;;;;;11.68;3.78;;;;;;;;;;4944359;28;20469;-72
2023/09/11 07:10:38;;;;;;;11.85;4.10;;;;;;;;;;4942237;28;20398;-71
2023/09/11 07:13:04;;;;;;;13.00;3.88;;;;;;;;;;4940153;28;20046;-71
2023/09/11 07:15:30;;;;;;;11.63;4.18;;;;;;;;;;4942807;28;20118;-71
2023/09/11 07:17:56;;;;;;;9.68;3.97;;;;;;;;;;4944334;28;20510;-71
2023/09/11 07:20:22;;;;;;;13.55;3.50;;;;;;;;;;4943603;28;20875;-71
2023/09/11 07:22:49;;;;;;;11.07;4.43;;;;;;;;;;4944421;28;20027;-69
2023/09/11 07:25:17;;;;;;;8.05;3.00;;;;;;;;;;4936551;28;20027;-72
2023/09/11 07:27:44;;;;;;;7.55;3.00;;;;;;;;;;4944910;28;20031;-69
2023/09/11 07:30:10;;;;;;;6.13;2.75;;;;;;;;;;4944414;28;20031;-70
2023/09/11 07:32:36;;;;;;;9.02;3.08;;;;;;;;;;4945004;28;20037;-69
2023/09/11 07:35:02;;;;;;;7.15;2.47;;;;;;;;;;4943006;28;20055;-71
2023/09/11 07:37:29;;;;;;;6.30;2.75;;;;;;;;;;4942075;28;20576;-71
2023/09/11 07:39:55;;;;;;;6.35;2.40;;;;;;;;;;4943645;28;20384;-72
2023/09/11 07:42:21;;;;;;;8.10;2.67;;;;;;;;;;4934065;28;20366;-71
2023/09/11 07:44:47;;;;;;;9.45;2.70;;;;;;;;;;4944540;28;20027;-71
2023/09/11 07:47:13;;;;;;;5.72;2.30;;;;;;;;;;4941201;28;20041;-72
2023/09/11 07:49:40;;;;;;;7.35;2.55;;;;;;;;;;4940818;28;20037;-72
2023/09/11 07:52:06;;;;;;;10.82;3.13;;;;;;;;;;4939616;28;20039;-72
2023/09/11 07:54:32;;;;;;;14.35;3.40;;;;;;;;;;4935943;28;20023;-72
2023/09/11 07:57:01;;;;;;;14.40;3.53;;;;;;;;;;4944605;28;20039;-72
2023/09/11 07:59:27;;;;;;;16.63;4.30;;;;;;;;;;4940596;28;20030;-72
2023/09/11 08:01:53;;;;;;;12.93;3.95;;;;;;;;;;4943710;28;20081;-72
2023/09/11 08:04:19;;;;;;;14.00;3.90;;;;;;;;;;4937696;28;20496;-70
2023/09/11 08:06:46;;;;;;;9.65;3.00;;;;;;;;;;4937683;28;20027;-70
2023/09/11 08:09:12;;;;;;;12.63;3.58;;;;;;;;;;4940693;28;20478;-70
2023/09/11 08:11:39;;;;;;;7.50;2.97;;;;;;;;;;4941254;28;20042;-70
2023/09/11 08:14:06;;;;;;;9.77;2.85;;;;;;;;;;4943190;28;20035;-70
2023/09/11 08:16:32;;;;;;;8.57;2.90;;;;;;;;;;4940346;28;20134;-70
2023/09/11 08:18:59;;;;;;;11.43;3.08;;;;;;;;;;4943417;28;20031;-70
2023/09/11 08:21:25;;;;;;;8.52;2.85;;;;;;;;;;4938266;28;20031;-70
2023/09/11 08:23:51;;;;;;;6.88;2.60;;;;;;;;;;4939814;28;20033;-70
2023/09/11 08:26:17;;;;;;;9.93;3.05;;;;;;;;;;4936007;28;20367;-70
2023/09/11 08:28:43;;;;;;;7.63;2.40;;;;;;;;;;4938544;28;20430;-70
2023/09/11 08:31:09;;;;;;;6.30;2.13;;;;;;;;;;4940698;28;20556;-70
2023/09/11 08:33:36;;;;;;;8.45;2.97;;;;;;;;;;4937466;28;20065;-70
2023/09/11 08:36:02;;;;;;;8.23;2.50;;;;;;;;;;4942251;28;20328;-70
2023/09/11 08:38:28;;;;;;;6.15;2.08;;;;;;;;;;4939490;28;20134;-70
2023/09/11 08:40:55;;;;;;;7.05;2.95;;;;;;;;;;4937863;28;20476;-70
2023/09/11 08:43:24;;;;;;;7.85;2.50;;;;;;;;;;4936496;28;20027;-70
2023/09/11 08:45:51;;;;;;;6.35;2.42;;;;;;;;;;4941516;28;20081;-70
2023/09/11 08:48:18;;;;;;;8.60;2.63;;;;;;;;;;4937409;28;20030;-70
2023/09/11 08:50:50;;;;;;;10.77;2.35;;;;;;;;;;4938962;28;20238;-70
2023/09/11 08:53:18;;;;;;;14.90;3.05;;;;;;;;;;4937911;28;20925;-71
2023/09/11 08:55:47;;;;;;;6.75;2.65;;;;;;;;;;4938802;28;20447;-70
2023/09/11 08:58:15;;;;;;;8.13;3.10;;;;;;;;;;4937909;28;20154;-70
2023/09/11 09:00:41;;;;;;;8.73;3.05;;;;;;;;;;4943233;28;20433;-70
2023/09/11 09:03:08;;;;;;;7.78;3.35;;;;;;;;;;4942812;28;20030;-70
2023/09/11 09:05:34;;;;;;;10.27;3.47;;;;;;;;;;4940504;28;20070;-70
2023/09/11 09:08:02;;;;;;;7.97;3.15;;;;;;;;;;4942494;28;20035;-70
2023/09/11 09:10:28;;;;;;;8.48;3.70;;;;;;;;;;4938620;28;20038;-70
2023/09/11 09:12:55;;;;;;;8.48;3.65;;;;;;;;;;4941659;28;20053;-71
2023/09/11 09:15:21;;;;;;;7.60;3.03;;;;;;;;;;4940463;28;20039;-71
2023/09/11 09:17:48;;;;;;;5.60;2.30;;;;;;;;;;4942148;28;20035;-70
2023/09/11 09:20:16;;;;;;;6.60;2.55;;;;;;;;;;4938708;28;20035;-70
2023/09/11 09:22:55;;;;;;;5.72;2.40;;;;;;;;;;4942539;28;20710;-70
2023/09/11 09:25:22;;;;;;;6.82;2.47;;;;;;;;;;4940659;28;20031;-70
2023/09/11 09:27:48;;;;;;;7.72;2.17;;;;;;;;;;4941769;28;20403;-71
2023/09/11 09:30:21;;;;;;;6.20;2.38;;;;;;;;;;4939342;28;20440;-70
2023/09/11 09:32:48;;;;;;;8.52;2.60;;;;;;;;;;4941742;28;20496;-71
2023/09/11 09:35:15;;;;;;;6.15;2.35;;;;;;;;;;4937684;28;20546;-70
2023/09/11 09:37:41;;;;;;;8.75;2.40;;;;;;;;;;4942989;28;20030;-70
2023/09/11 09:40:07;;;;;;;9.05;2.83;;;;;;;;;;4943060;28;20022;-71
2023/09/11 09:42:40;;;;;;;12.05;3.30;;;;;;;;;;4938161;28;20059;-71
2023/09/11 09:45:06;;;;;;;16.08;5.05;;;;;;;;;;4941590;28;20039;-70
2023/09/11 09:47:32;;;;;;;11.60;4.82;;;;;;;;;;4937300;28;24265;-70
2023/09/11 09:50:01;;;;;;;7.22;2.80;;;;;;;;;;4940132;28;20035;-71
2023/09/11 09:52:30;;;;;;;12.50;3.38;;;;;;;;;;4938498;28;20122;-71
2023/09/11 09:54:57;;;;;;;7.20;2.40;;;;;;;;;;4941356;28;20023;-71
2023/09/11 09:57:24;;;;;;;8.40;3.40;;;;;;;;;;4938450;28;20049;-70
2023/09/11 09:59:52;;;;;;;7.30;2.78;;;;;;;;;;4939872;28;20035;-70
2023/09/11 10:02:23;;;;;;;7.57;2.60;;;;;;;;;;4938119;28;20023;-71
2023/09/11 10:04:53;;;;;;;5.63;2.30;;;;;;;;;;4939885;28;20042;-72
2023/09/11 10:07:35;;;;;;;5.60;2.13;;;;;;;;;;4938523;28;20599;-70
2023/09/11 10:10:21;;;;;;;4.85;1.90;;;;;;;;;;4941201;28;20553;-71
2023/09/11 10:12:52;;;;;;;6.88;2.17;;;;;;;;;;4941963;28;20035;-71
2023/09/11 10:15:19;;;;;;;6.18;2.22;;;;;;;;;;4936248;28;20023;-70
2023/09/11 10:17:45;;;;;;;5.68;2.38;;;;;;;;;;4941287;28;20054;-71
2023/09/11 10:20:12;;;;;;;6.70;2.75;;;;;;;;;;4939964;28;20037;-70
2023/09/11 10:22:38;;;;;;;7.03;2.35;;;;;;;;;;4940056;28;20183;-71
2023/09/11 10:25:05;;;;;;;6.45;2.10;;;;;;;;;;4941092;28;20189;-72
2023/09/11 10:27:31;;;;;;;6.45;2.30;;;;;;;;;;4937251;28;20023;-72
2023/09/11 10:30:03;;;;;;;7.03;2.63;;;;;;;;;;4938859;28;20043;-72
2023/09/11 10:32:34;;;;;;;7.68;2.65;;;;;;;;;;4938195;28;20113;-70
2023/09/11 10:35:01;;;;;;;7.20;2.50;;;;;;;;;;4941724;28;20035;-72
2023/09/11 10:37:30;;;;;;;6.10;2.30;;;;;;;;;;4934712;28;20553;-72
2023/09/11 10:39:58;;;;;;;7.32;2.65;;;;;;;;;;4941043;28;20031;-71
2023/09/11 10:42:24;;;;;;;7.28;2.67;;;;;;;;;;4938253;28;20836;-72
2023/09/11 10:44:53;;;;;;;9.13;2.38;;;;;;;;;;4941636;28;20031;-71
2023/09/11 10:47:20;;;;;;;9.80;2.75;;;;;;;;;;4937252;28;20034;-72
2023/09/11 10:49:49;;;;;;;7.70;2.88;;;;;;;;;;4941702;28;20042;-72
2023/09/11 10:52:16;;;;;;;9.70;3.50;;;;;;;;;;4937182;28;20505;-71
2023/09/11 10:54:42;;;;;;;10.15;3.20;;;;;;;;;;4941668;28;20022;-72
2023/09/11 10:57:09;;;;;;;9.38;3.15;;;;;;;;;;4942043;28;20419;-71
2023/09/11 10:59:35;;;;;;;10.82;3.72;;;;;;;;;;4936459;28;20050;-72
2023/09/11 11:02:02;;;;;;;10.20;3.58;;;;;;;;;;4939400;28;20466;-72
2023/09/11 11:04:31;;;;;;;11.68;3.28;;;;;;;;;;4937430;28;20833;-72
2023/09/11 11:06:59;;;;;;;8.88;3.25;;;;;;;;;;4939011;28;20038;-71
2023/09/11 11:09:28;;;;;;;9.30;2.78;;;;;;;;;;4935440;28;20371;-72
2023/09/11 11:12:10;;;;;;;9.05;2.90;;;;;;;;;;4940142;28;20431;-72
2023/09/11 11:14:37;;;;;;;7.15;2.80;;;;;;;;;;4938270;28;20046;-71
2023/09/11 11:17:13;;;;;;;14.73;8.85;;;;;;;;;;4938308;28;20113;-72
2023/09/11 11:19:40;;;;;;;8.60;3.45;;;;;;;;;;4943190;28;20035;-72
2023/09/11 11:22:07;;;;;;;8.30;2.88;;;;;;;;;;4939597;28;20557;-72
2023/09/11 11:25:03;;;;;;;7.63;3.08;;;;;;;;;;4936011;28;21781;-72
2023/09/11 11:27:29;;;;;;;6.38;2.80;;;;;;;;;;4936029;28;20182;-72
2023/09/11 11:29:56;;;;;;;7.50;2.60;;;;;;;;;;4938760;28;20073;-71
2023/09/11 11:32:23;;;;;;;7.82;2.72;;;;;;;;;;4937209;28;20350;-72
2023/09/11 11:34:53;;;;;;;7.03;2.60;;;;;;;;;;4943031;28;20341;-72
2023/09/11 11:37:21;;;;;;;6.90;2.70;;;;;;;;;;4939790;28;20034;-72
2023/09/11 11:39:47;;;;;;;11.00;3.33;;;;;;;;;;4941469;28;20376;-72
2023/09/11 11:42:14;;;;;;;8.73;3.90;;;;;;;;;;4938544;28;20675;-70
2023/09/11 11:44:41;;;;;;;8.55;3.50;;;;;;;;;;4945338;28;20029;-71
2023/09/11 11:47:08;;;;;;;12.38;4.57;;;;;;;;;;4940981;28;20419;-71
2023/09/11 11:49:37;;;;;;;9.38;3.67;;;;;;;;;;4940373;28;20590;-72
2023/09/11 11:52:04;;;;;;;7.00;3.10;;;;;;;;;;4941366;28;20202;-71
2023/09/11 11:54:30;;;;;;;8.27;3.05;;;;;;;;;;4944170;28;20029;-72
2023/09/11 11:56:57;;;;;;;8.82;3.30;;;;;;;;;;4947244;28;20038;-72
2023/09/11 11:59:23;;;;;;;7.68;3.10;;;;;;;;;;4940990;28;20065;-71
2023/09/11 12:01:50;;;;;;;7.65;3.78;;;;;;;;;;4946021;28;20042;-72
2023/09/11 12:04:16;;;;;;;11.18;3.40;;;;;;;;;;4944436;28;20109;-72
2023/09/11 12:06:42;;;;;;;12.50;3.90;;;;;;;;;;4945684;28;20363;-72
2023/09/11 12:09:09;;;;;;;12.63;3.90;;;;;;;;;;4947113;28;20038;-72
2023/09/11 12:11:37;;;;;;;7.82;2.95;;;;;;;;;;4939545;28;20039;-73
2023/09/11 12:14:05;;;;;;;7.45;2.80;;;;;;;;;;4944556;28;20041;-72
2023/09/11 12:16:31;;;;;;;8.20;3.25;;;;;;;;;;4940255;28;20030;-72
2023/09/11 12:18:57;;;;;;;9.77;2.70;;;;;;;;;;4947111;28;20408;-70
2023/09/11 12:21:24;;;;;;;12.65;3.78;;;;;;;;;;4941513;28;20067;-71
2023/09/11 12:23:50;;;;;;;7.82;3.30;;;;;;;;;;4943058;28;20156;-71
2023/09/11 12:26:16;;;;;;;9.80;3.65;;;;;;;;;;4946872;28;20138;-70
2023/09/11 12:28:42;;;;;;;7.80;3.20;;;;;;;;;;4942457;28;20035;-71
2023/09/11 12:31:08;;;;;;;7.40;3.08;;;;;;;;;;4944974;28;20040;-71
2023/09/11 12:33:35;;;;;;;8.65;2.92;;;;;;;;;;4947348;28;20476;-71
2023/09/11 12:36:02;;;;;;;8.95;3.08;;;;;;;;;;4947404;28;20030;-71
2023/09/11 12:38:29;;;;;;;8.10;3.08;;;;;;;;;;4948031;28;20213;-71
2023/09/11 12:40:56;;;;;;;8.93;3.10;;;;;;;;;;4953135;28;20437;-71
2023/09/11 12:43:22;;;;;;;8.02;2.80;;;;;;;;;;4949521;28;20478;-72
2023/09/11 12:45:48;;;;;;;7.30;3.10;;;;;;;;;;4949457;28;20026;-71
2023/09/11 12:48:14;;;;;;;9.25;3.60;;;;;;;;;;4948625;28;20030;-72
2023/09/11 12:50:40;;;;;;;8.48;3.10;;;;;;;;;;4950568;28;20312;-71
2023/09/11 12:53:07;;;;;;;6.63;2.65;;;;;;;;;;4948980;28;20118;-72
2023/09/11 12:55:33;;;;;;;8.00;2.60;;;;;;;;;;4949131;28;22055;-72
2023/09/11 12:58:01;;;;;;;7.30;2.60;;;;;;;;;;4952358;28;20038;-71
2023/09/11 13:00:30;;;;;;;7.53;2.85;;;;;;;;;;4946864;28;20031;-71
2023/09/11 13:02:57;;;;;;;8.52;4.28;;;;;;;;;;4949497;28;20093;-72
2023/09/11 13:05:24;;;;;;;8.68;4.38;;;;;;;;;;4945344;28;20038;-71
2023/09/11 13:07:50;;;;;;;8.77;4.40;;;;;;;;;;4948326;28;20942;-71
2023/09/11 13:10:16;;;;;;;10.98;3.55;;;;;;;;;;4945376;28;20117;-71
2023/09/11 13:12:43;;;;;;;8.63;4.20;;;;;;;;;;4948386;28;20022;-71
2023/09/11 13:15:10;;;;;;;9.80;3.78;;;;;;;;;;4948459;28;20035;-71
2023/09/11 13:17:36;;;;;;;7.10;3.47;;;;;;;;;;4944880;28;20032;-71
2023/09/11 13:20:03;;;;;;;10.85;3.97;;;;;;;;;;4951715;28;20031;-71
2023/09/11 13:22:29;;;;;;;9.13;3.47;;;;;;;;;;4946616;28;20038;-71
2023/09/11 13:24:56;;;;;;;11.13;3.92;;;;;;;;;;4948633;28;20233;-71
2023/09/11 13:27:22;;;;;;;9.90;4.05;;;;;;;;;;4945762;28;20221;-71
2023/09/11 13:29:48;;;;;;;7.88;3.53;;;;;;;;;;4947832;28;20042;-71
2023/09/11 13:32:16;;;;;;;8.93;3.78;;;;;;;;;;4943652;28;20332;-70
2023/09/11 13:34:42;;;;;;;8.73;3.45;;;;;;;;;;4945574;28;20030;-71
2023/09/11 13:37:09;;;;;;;9.00;3.75;;;;;;;;;;4949295;28;20054;-70
2023/09/11 13:39:35;;;;;;;8.38;3.85;;;;;;;;;;4947184;28;20073;-70
2023/09/11 13:42:01;;;;;;;9.68;4.78;;;;;;;;;;4946641;28;20118;-71
2023/09/11 13:44:27;;;;;;;11.80;5.00;;;;;;;;;;4945088;28;20502;-71
2023/09/11 13:46:53;;;;;;;9.10;3.90;;;;;;;;;;4944297;28;20482;-73
2023/09/11 13:49:19;;;;;;;11.38;4.55;;;;;;;;;;4946998;28;20496;-73
2023/09/11 13:51:46;;;;;;;10.00;4.40;;;;;;;;;;4948951;28;20031;-72
2023/09/11 13:54:12;;;;;;;14.88;4.60;;;;;;;;;;4947800;28;20494;-72
2023/09/11 13:56:39;;;;;;;12.18;3.83;;;;;;;;;;4948393;28;20089;-73
2023/09/11 13:59:05;;;;;;;12.85;3.20;;;;;;;;;;4948718;28;20133;-72
2023/09/11 14:01:31;;;;;;;9.48;2.95;;;;;;;;;;4944946;28;20055;-72
2023/09/11 14:03:57;;;;;;;8.13;2.90;;;;;;;;;;4944189;28;20617;-72
2023/09/11 14:06:24;;;;;;;8.30;3.00;;;;;;;;;;4943786;28;20854;-72
2023/09/11 14:08:50;;;;;;;6.43;2.88;;;;;;;;;;4947190;28;20433;-72
2023/09/11 14:11:17;;;;;;;7.88;2.92;;;;;;;;;;4944974;28;20333;-72
2023/09/11 14:13:43;;;;;;;7.80;2.90;;;;;;;;;;4948972;28;20061;-72
2023/09/11 14:16:09;;;;;;;9.73;3.58;;;;;;;;;;4950898;28;20035;-72
2023/09/11 14:18:35;;;;;;;8.32;3.00;;;;;;;;;;4944424;28;20727;-72
2023/09/11 14:21:02;;;;;;;9.90;3.20;;;;;;;;;;4947632;28;20030;-72
2023/09/11 14:23:28;;;;;;;6.00;2.65;;;;;;;;;;4944859;28;20026;-71
2023/09/11 14:25:57;;;;;;;7.43;3.05;;;;;;;;;;4946926;28;20161;-72
2023/09/11 14:28:23;;;;;;;8.38;3.70;;;;;;;;;;4944793;28;20031;-72
2023/09/11 14:30:49;;;;;;;7.05;3.22;;;;;;;;;;4946369;28;20031;-71
2023/09/11 14:33:16;;;;;;;10.30;2.83;;;;;;;;;;4942323;28;20031;-71
2023/09/11 14:35:42;;;;;;;7.68;3.22;;;;;;;;;;4949081;28;20034;-71
2023/09/11 14:38:08;;;;;;;7.50;3.38;;;;;;;;;;4951166;28;20138;-73
2023/09/11 14:40:35;;;;;;;7.40;3.10;;;;;;;;;;4943819;28;20481;-72